Time;durP1;ratioP1;P1;durP2;ratioP2;P2;SDS_P1;SDS_P2;PMS_P1;PMS_P2;Temp;Humidity;BMP_temperature;BMP_pressure;BME280_temperature;BME280_humidity;BME280_pressure;Samples;Min_cycle;Max_cycle;Signal;HPM_P1;HPM_P2
2024/01/07 00:00:47;;;;;;;15.10;9.83;;;;;;;;;;714090;194;920313;-61
2024/01/07 00:03:13;;;;;;;11.87;7.70;;;;;;;;;;713903;194;918042;-61
2024/01/07 00:05:39;;;;;;;12.73;10.50;;;;;;;;;;719045;194;919009;-67
2024/01/07 00:08:05;;;;;;;12.33;9.17;;;;;;;;;;717020;194;817250;-61
2024/01/07 00:10:31;;;;;;;18.92;10.05;;;;;;;;;;713660;194;819634;-61
2024/01/07 00:12:57;;;;;;;12.67;7.77;;;;;;;;;;717061;194;918593;-62
2024/01/07 00:15:25;;;;;;;11.68;6.78;;;;;;;;;;720201;195;916845;-61
2024/01/07 00:17:48;;;;;;;14.47;7.77;;;;;;;;;;717635;194;917567;-62
2024/01/07 00:20:14;;;;;;;16.83;8.77;;;;;;;;;;712332;194;918766;-67
2024/01/07 00:22:40;;;;;;;16.93;9.03;;;;;;;;;;715663;194;810865;-61
2024/01/07 00:25:07;;;;;;;12.90;9.53;;;;;;;;;;715945;194;918915;-61
2024/01/07 00:27:34;;;;;;;15.67;9.30;;;;;;;;;;713275;194;916553;-66
2024/01/07 00:30:00;;;;;;;18.00;10.73;;;;;;;;;;720525;194;820366;-61
2024/01/07 00:32:26;;;;;;;14.43;8.77;;;;;;;;;;713749;194;911883;-67
2024/01/07 00:34:53;;;;;;;10.27;6.83;;;;;;;;;;711274;194;919724;-68
2024/01/07 00:37:18;;;;;;;13.77;8.63;;;;;;;;;;712566;194;918618;-62
2024/01/07 00:39:45;;;;;;;12.20;7.97;;;;;;;;;;718506;194;1001405;-61
2024/01/07 00:42:10;;;;;;;11.40;7.60;;;;;;;;;;713952;194;917335;-66
2024/01/07 00:44:35;;;;;;;17.53;8.33;;;;;;;;;;714240;195;821414;-61
2024/01/07 00:47:01;;;;;;;10.10;6.37;;;;;;;;;;716575;194;919350;-67
2024/01/07 00:49:27;;;;;;;10.33;7.90;;;;;;;;;;710403;194;919952;-68
2024/01/07 00:51:53;;;;;;;12.43;9.30;;;;;;;;;;712705;192;1020542;-67
2024/01/07 00:54:19;;;;;;;13.63;9.80;;;;;;;;;;720497;194;916532;-62
2024/01/07 00:56:45;;;;;;;12.80;6.83;;;;;;;;;;711871;194;921287;-66
2024/01/07 00:59:11;;;;;;;16.10;8.82;;;;;;;;;;714882;194;919882;-62
2024/01/07 01:01:38;;;;;;;16.50;9.18;;;;;;;;;;711598;194;918140;-62
2024/01/07 01:04:04;;;;;;;12.50;8.40;;;;;;;;;;727407;190;818169;-62
2024/01/07 01:06:30;;;;;;;9.63;5.73;;;;;;;;;;717465;194;917931;-62
2024/01/07 01:08:56;;;;;;;12.63;8.37;;;;;;;;;;714811;195;917935;-67
2024/01/07 01:11:22;;;;;;;16.10;8.87;;;;;;;;;;721449;193;920101;-67
2024/01/07 01:13:47;;;;;;;12.03;8.20;;;;;;;;;;713818;194;919784;-67
2024/01/07 01:16:13;;;;;;;10.50;6.87;;;;;;;;;;715941;194;917836;-63
2024/01/07 01:18:39;;;;;;;11.13;8.10;;;;;;;;;;724830;194;918625;-63
2024/01/07 01:21:05;;;;;;;10.83;7.70;;;;;;;;;;718488;194;878631;-62
2024/01/07 01:23:31;;;;;;;11.02;7.28;;;;;;;;;;713335;194;919655;-67
2024/01/07 01:25:57;;;;;;;8.82;5.10;;;;;;;;;;716700;194;917436;-63
2024/01/07 01:28:23;;;;;;;14.23;9.50;;;;;;;;;;718345;195;919494;-66
2024/01/07 01:30:49;;;;;;;13.43;9.47;;;;;;;;;;712331;194;919414;-62
2024/01/07 01:33:16;;;;;;;8.60;5.47;;;;;;;;;;714274;194;929548;-63
2024/01/07 01:35:43;;;;;;;13.43;6.10;;;;;;;;;;721573;194;919343;-67
2024/01/07 01:38:08;;;;;;;13.73;11.40;;;;;;;;;;718360;194;919918;-67
2024/01/07 01:40:34;;;;;;;11.80;8.23;;;;;;;;;;717187;194;919232;-66
2024/01/07 01:43:00;;;;;;;14.73;9.33;;;;;;;;;;716186;194;918734;-66
2024/01/07 01:45:26;;;;;;;9.77;7.03;;;;;;;;;;718425;194;920382;-63
2024/01/07 01:47:52;;;;;;;12.47;7.43;;;;;;;;;;713953;194;918307;-61
2024/01/07 01:50:18;;;;;;;12.30;7.65;;;;;;;;;;717929;194;940868;-67
2024/01/07 01:52:44;;;;;;;13.45;8.57;;;;;;;;;;715246;195;918064;-66
2024/01/07 01:55:10;;;;;;;12.13;6.60;;;;;;;;;;711959;195;918532;-62
2024/01/07 01:57:36;;;;;;;7.53;5.00;;;;;;;;;;712237;194;921118;-61
2024/01/07 02:00:04;;;;;;;10.17;5.93;;;;;;;;;;720001;194;945406;-67
2024/01/07 02:02:28;;;;;;;11.27;7.30;;;;;;;;;;714191;194;919072;-61
2024/01/07 02:04:54;;;;;;;9.40;6.40;;;;;;;;;;712208;192;919004;-61
2024/01/07 02:07:20;;;;;;;12.10;9.43;;;;;;;;;;715980;195;919476;-61
2024/01/07 02:09:47;;;;;;;13.97;8.83;;;;;;;;;;712407;194;821492;-61
2024/01/07 02:12:13;;;;;;;16.33;7.47;;;;;;;;;;716528;194;816544;-61
2024/01/07 02:14:39;;;;;;;14.75;10.10;;;;;;;;;;714479;195;918134;-61
2024/01/07 02:17:05;;;;;;;13.50;8.47;;;;;;;;;;717633;195;816768;-66
2024/01/07 02:19:31;;;;;;;13.07;8.37;;;;;;;;;;711915;194;914633;-68
2024/01/07 02:21:57;;;;;;;21.37;8.77;;;;;;;;;;714524;194;1018115;-60
2024/01/07 02:24:22;;;;;;;26.10;10.83;;;;;;;;;;722031;194;816294;-71
2024/01/07 02:26:48;;;;;;;11.67;9.90;;;;;;;;;;715768;191;915866;-67
2024/01/07 02:29:14;;;;;;;12.10;6.33;;;;;;;;;;714196;193;919077;-61
2024/01/07 02:31:40;;;;;;;11.33;6.73;;;;;;;;;;717512;194;923074;-60
2024/01/07 02:34:06;;;;;;;12.90;6.80;;;;;;;;;;714861;194;918758;-66
2024/01/07 02:36:32;;;;;;;10.80;6.17;;;;;;;;;;712954;194;920411;-68
2024/01/07 02:38:58;;;;;;;13.80;8.80;;;;;;;;;;720338;194;913428;-61
2024/01/07 02:41:25;;;;;;;9.53;5.47;;;;;;;;;;722050;194;919143;-61
2024/01/07 02:43:51;;;;;;;9.73;5.80;;;;;;;;;;717995;194;915184;-61
2024/01/07 02:46:17;;;;;;;17.33;8.30;;;;;;;;;;713062;194;816356;-61
2024/01/07 02:48:43;;;;;;;15.00;5.80;;;;;;;;;;720865;194;820742;-61
2024/01/07 02:51:08;;;;;;;13.62;8.50;;;;;;;;;;715439;194;917993;-60
2024/01/07 02:53:34;;;;;;;16.97;9.50;;;;;;;;;;718583;194;919045;-61
2024/01/07 02:56:00;;;;;;;13.40;8.73;;;;;;;;;;717808;194;918082;-68
2024/01/07 02:58:26;;;;;;;15.07;8.70;;;;;;;;;;717837;194;916786;-67
2024/01/07 03:00:52;;;;;;;10.50;6.70;;;;;;;;;;715615;194;902296;-60
2024/01/07 03:03:18;;;;;;;14.50;8.13;;;;;;;;;;716238;194;1021508;-67
2024/01/07 03:05:43;;;;;;;12.97;8.60;;;;;;;;;;712368;194;919037;-61
2024/01/07 03:08:09;;;;;;;13.45;8.27;;;;;;;;;;713619;194;919206;-60
2024/01/07 03:10:35;;;;;;;13.23;9.37;;;;;;;;;;713533;195;920781;-67
2024/01/07 03:13:02;;;;;;;11.87;6.50;;;;;;;;;;725728;190;910074;-68
2024/01/07 03:15:29;;;;;;;12.43;6.60;;;;;;;;;;713525;194;934737;-68
2024/01/07 03:17:55;;;;;;;11.20;7.32;;;;;;;;;;712713;194;921056;-68
2024/01/07 03:20:21;;;;;;;12.95;6.82;;;;;;;;;;720073;194;918383;-71
2024/01/07 03:22:47;;;;;;;14.20;5.97;;;;;;;;;;713671;194;816995;-68
2024/01/07 03:25:13;;;;;;;14.50;5.83;;;;;;;;;;712538;194;938858;-61
2024/01/07 03:27:38;;;;;;;24.40;7.70;;;;;;;;;;722663;194;817298;-60
2024/01/07 03:30:05;;;;;;;12.30;9.20;;;;;;;;;;715268;194;811501;-69
2024/01/07 03:32:30;;;;;;;8.67;6.37;;;;;;;;;;716643;194;913352;-60
2024/01/07 03:34:56;;;;;;;10.03;5.40;;;;;;;;;;713282;194;922246;-68
2024/01/07 03:37:22;;;;;;;16.70;7.30;;;;;;;;;;725778;190;919084;-60
2024/01/07 03:39:49;;;;;;;10.30;5.50;;;;;;;;;;716403;194;920437;-69
2024/01/07 03:42:14;;;;;;;12.43;7.10;;;;;;;;;;713320;194;923557;-69
2024/01/07 03:44:40;;;;;;;16.80;7.13;;;;;;;;;;722154;194;911714;-69
2024/01/07 03:47:08;;;;;;;12.70;7.50;;;;;;;;;;715872;194;913954;-68
2024/01/07 03:49:34;;;;;;;12.23;9.10;;;;;;;;;;714698;194;914583;-69
2024/01/07 03:52:01;;;;;;;9.23;5.37;;;;;;;;;;720141;194;822866;-69
2024/01/07 03:54:26;;;;;;;11.77;8.30;;;;;;;;;;720465;191;896305;-60
2024/01/07 03:56:52;;;;;;;8.80;6.80;;;;;;;;;;721178;187;794895;-68
2024/01/07 03:59:18;;;;;;;13.70;7.30;;;;;;;;;;720093;192;919875;-68
2024/01/07 04:01:44;;;;;;;12.90;6.10;;;;;;;;;;723093;194;893309;-61
2024/01/07 04:04:10;;;;;;;10.80;6.40;;;;;;;;;;713742;194;919123;-60
2024/01/07 04:06:36;;;;;;;9.93;6.77;;;;;;;;;;712655;194;846183;-67
2024/01/07 04:09:03;;;;;;;10.82;6.22;;;;;;;;;;717663;194;918864;-60
2024/01/07 04:11:27;;;;;;;10.73;8.23;;;;;;;;;;715568;194;919176;-61
2024/01/07 04:13:53;;;;;;;10.47;7.00;;;;;;;;;;712143;194;913894;-62
2024/01/07 04:16:19;;;;;;;9.13;6.83;;;;;;;;;;716394;194;919255;-62
2024/01/07 04:18:45;;;;;;;12.17;8.27;;;;;;;;;;715698;194;920104;-61
2024/01/07 04:21:11;;;;;;;11.73;6.30;;;;;;;;;;710353;194;919161;-61
2024/01/07 04:23:38;;;;;;;13.07;5.93;;;;;;;;;;715082;195;915772;-67
2024/01/07 04:26:04;;;;;;;8.03;6.27;;;;;;;;;;721268;191;918918;-64
2024/01/07 04:28:30;;;;;;;10.03;6.73;;;;;;;;;;718615;194;813248;-63
2024/01/07 04:30:56;;;;;;;15.03;8.53;;;;;;;;;;713780;194;816344;-69
2024/01/07 04:33:22;;;;;;;10.07;6.57;;;;;;;;;;717348;194;918466;-69
2024/01/07 04:35:48;;;;;;;12.80;8.27;;;;;;;;;;713449;194;917782;-64
2024/01/07 04:38:14;;;;;;;11.30;6.60;;;;;;;;;;713961;194;917783;-63
2024/01/07 04:40:40;;;;;;;18.50;5.93;;;;;;;;;;719812;194;919084;-70
2024/01/07 04:43:05;;;;;;;11.30;8.67;;;;;;;;;;711855;194;816687;-62
2024/01/07 04:45:31;;;;;;;15.00;9.40;;;;;;;;;;710993;194;918659;-63
2024/01/07 04:47:57;;;;;;;13.00;8.40;;;;;;;;;;719214;194;919408;-66
2024/01/07 04:50:23;;;;;;;6.60;4.10;;;;;;;;;;725660;190;819255;-60
2024/01/07 04:52:49;;;;;;;11.00;6.77;;;;;;;;;;720173;194;814164;-61
2024/01/07 04:55:15;;;;;;;7.10;4.70;;;;;;;;;;717416;194;812892;-67
2024/01/07 04:57:41;;;;;;;12.73;6.10;;;;;;;;;;721679;194;910429;-67
2024/01/07 05:00:08;;;;;;;10.70;6.53;;;;;;;;;;711556;194;920377;-61
2024/01/07 05:02:34;;;;;;;9.23;6.40;;;;;;;;;;718397;194;918057;-67
2024/01/07 05:05:00;;;;;;;8.57;6.90;;;;;;;;;;718663;194;815922;-61
2024/01/07 05:07:25;;;;;;;9.80;6.50;;;;;;;;;;712912;194;918478;-68
2024/01/07 05:09:51;;;;;;;7.40;5.53;;;;;;;;;;713654;193;918799;-61
2024/01/07 05:12:17;;;;;;;10.93;6.73;;;;;;;;;;719298;194;915080;-60
2024/01/07 05:14:43;;;;;;;6.47;5.27;;;;;;;;;;713762;194;919100;-61
2024/01/07 05:17:09;;;;;;;16.00;7.22;;;;;;;;;;710994;194;919884;-62
2024/01/07 05:19:35;;;;;;;11.20;7.33;;;;;;;;;;714029;194;922296;-61
2024/01/07 05:22:00;;;;;;;11.20;6.67;;;;;;;;;;716481;194;918588;-66
2024/01/07 05:24:26;;;;;;;7.43;5.70;;;;;;;;;;716782;194;916107;-61
2024/01/07 05:26:53;;;;;;;6.80;4.35;;;;;;;;;;710468;194;899722;-61
2024/01/07 05:29:19;;;;;;;12.93;6.30;;;;;;;;;;722070;194;816821;-68
2024/01/07 05:31:46;;;;;;;13.03;6.30;;;;;;;;;;711866;194;910994;-67
2024/01/07 05:34:13;;;;;;;10.37;6.27;;;;;;;;;;713067;194;914477;-68
2024/01/07 05:36:39;;;;;;;11.30;6.03;;;;;;;;;;715490;194;919197;-67
2024/01/07 05:39:06;;;;;;;12.43;7.20;;;;;;;;;;726685;190;918280;-68
2024/01/07 05:41:31;;;;;;;10.80;6.90;;;;;;;;;;715632;194;918984;-68
2024/01/07 05:43:57;;;;;;;10.70;7.37;;;;;;;;;;717149;194;919265;-67
2024/01/07 05:46:23;;;;;;;10.00;5.90;;;;;;;;;;717165;194;924162;-61
2024/01/07 05:48:49;;;;;;;7.90;5.20;;;;;;;;;;714614;194;918823;-61
2024/01/07 05:51:14;;;;;;;8.63;5.10;;;;;;;;;;713973;194;917422;-61
2024/01/07 05:53:40;;;;;;;9.60;5.20;;;;;;;;;;718372;194;817597;-61
2024/01/07 05:56:06;;;;;;;8.43;6.97;;;;;;;;;;715794;194;892074;-71
2024/01/07 05:58:32;;;;;;;8.47;5.67;;;;;;;;;;716433;194;918656;-61
2024/01/07 06:00:58;;;;;;;9.80;5.80;;;;;;;;;;719240;194;918749;-67
2024/01/07 06:03:24;;;;;;;10.70;6.53;;;;;;;;;;718070;194;827993;-61
2024/01/07 06:05:51;;;;;;;7.10;5.23;;;;;;;;;;715170;194;920302;-67
2024/01/07 06:08:17;;;;;;;10.47;7.13;;;;;;;;;;710202;194;2045707;-68
2024/01/07 06:10:43;;;;;;;10.87;5.90;;;;;;;;;;717491;194;817223;-60
2024/01/07 06:13:09;;;;;;;11.53;5.67;;;;;;;;;;716284;194;920879;-61
2024/01/07 06:15:34;;;;;;;11.25;5.70;;;;;;;;;;715159;194;845380;-61
2024/01/07 06:18:00;;;;;;;7.70;4.70;;;;;;;;;;716633;194;920013;-61
2024/01/07 06:20:26;;;;;;;10.43;6.83;;;;;;;;;;713006;194;919235;-61
2024/01/07 06:22:52;;;;;;;8.80;6.00;;;;;;;;;;713050;194;817037;-60
2024/01/07 06:25:18;;;;;;;8.83;6.07;;;;;;;;;;724672;194;918955;-68
2024/01/07 06:27:44;;;;;;;8.30;5.20;;;;;;;;;;717995;194;941203;-68
2024/01/07 06:30:10;;;;;;;8.90;5.50;;;;;;;;;;715485;194;867077;-69
2024/01/07 06:32:36;;;;;;;12.93;7.83;;;;;;;;;;709780;194;1013997;-61
2024/01/07 06:35:05;;;;;;;13.35;6.62;;;;;;;;;;704997;198;900888;-61
2024/01/07 06:37:31;;;;;;;10.10;6.70;;;;;;;;;;718332;194;918358;-60
2024/01/07 06:39:58;;;;;;;11.43;4.90;;;;;;;;;;712252;194;819411;-61
2024/01/07 06:42:24;;;;;;;10.80;5.70;;;;;;;;;;715977;194;918111;-61
2024/01/07 06:44:50;;;;;;;11.13;8.47;;;;;;;;;;720051;194;916006;-69
2024/01/07 06:47:16;;;;;;;11.90;7.90;;;;;;;;;;713038;194;918817;-60
2024/01/07 06:49:42;;;;;;;10.47;6.53;;;;;;;;;;715807;194;920935;-60
2024/01/07 06:52:07;;;;;;;11.07;8.37;;;;;;;;;;715019;194;906646;-63
2024/01/07 06:54:33;;;;;;;28.33;15.33;;;;;;;;;;714864;194;915522;-69
2024/01/07 06:56:59;;;;;;;34.87;23.50;;;;;;;;;;714280;194;820704;-68
2024/01/07 06:59:25;;;;;;;14.53;10.93;;;;;;;;;;716355;194;816599;-61
2024/01/07 07:01:51;;;;;;;11.20;9.90;;;;;;;;;;709832;194;913394;-60
2024/01/07 07:04:17;;;;;;;12.20;6.80;;;;;;;;;;716848;194;816985;-68
2024/01/07 07:06:43;;;;;;;12.20;10.73;;;;;;;;;;718347;194;915482;-60
2024/01/07 07:09:11;;;;;;;29.83;20.00;;;;;;;;;;719110;193;758084;-67
2024/01/07 07:11:35;;;;;;;28.77;23.08;;;;;;;;;;721777;194;816560;-67
2024/01/07 07:14:02;;;;;;;23.67;18.63;;;;;;;;;;716750;194;920802;-59
2024/01/07 07:16:29;;;;;;;51.17;37.90;;;;;;;;;;717088;194;914302;-59
2024/01/07 07:18:55;;;;;;;30.63;26.83;;;;;;;;;;720171;194;876475;-60
2024/01/07 07:21:20;;;;;;;53.17;42.37;;;;;;;;;;711769;194;919709;-59
2024/01/07 07:23:46;;;;;;;28.73;21.77;;;;;;;;;;721042;194;812645;-67
2024/01/07 07:26:12;;;;;;;38.43;23.60;;;;;;;;;;717187;194;919198;-60
2024/01/07 07:28:38;;;;;;;17.67;13.27;;;;;;;;;;717280;194;813583;-67
2024/01/07 07:31:04;;;;;;;12.53;8.30;;;;;;;;;;718745;194;1020910;-67
2024/01/07 07:33:30;;;;;;;23.73;13.97;;;;;;;;;;710745;194;822721;-64
2024/01/07 07:35:55;;;;;;;13.30;8.77;;;;;;;;;;716563;193;878248;-59
2024/01/07 07:38:21;;;;;;;15.03;9.97;;;;;;;;;;719097;194;914329;-66
2024/01/07 07:40:52;;;;;;;15.83;8.93;;;;;;;;;;717767;194;813270;-69
2024/01/07 07:43:13;;;;;;;8.60;6.70;;;;;;;;;;715962;194;1016065;-67
2024/01/07 07:45:39;;;;;;;20.07;12.43;;;;;;;;;;712237;194;924734;-67
2024/01/07 07:48:05;;;;;;;15.70;8.50;;;;;;;;;;725020;191;819406;-60
2024/01/07 07:50:31;;;;;;;19.60;10.73;;;;;;;;;;713472;194;920804;-69
2024/01/07 07:52:57;;;;;;;10.20;7.87;;;;;;;;;;715991;194;913334;-69
2024/01/07 07:55:23;;;;;;;10.00;8.73;;;;;;;;;;717406;194;915338;-67
2024/01/07 07:57:50;;;;;;;11.13;7.00;;;;;;;;;;716182;193;910659;-67
2024/01/07 08:00:15;;;;;;;9.97;7.13;;;;;;;;;;716601;194;920030;-60
2024/01/07 08:02:41;;;;;;;14.60;8.00;;;;;;;;;;720966;195;825379;-60
2024/01/07 08:05:07;;;;;;;10.97;8.20;;;;;;;;;;713165;194;1023621;-60
2024/01/07 08:07:33;;;;;;;33.77;19.17;;;;;;;;;;715814;194;916078;-59
2024/01/07 08:09:59;;;;;;;10.90;8.90;;;;;;;;;;714658;194;1010944;-67
2024/01/07 08:12:24;;;;;;;10.50;8.30;;;;;;;;;;717674;195;621212;-70
2024/01/07 08:14:50;;;;;;;10.73;7.63;;;;;;;;;;717068;195;626529;-59
2024/01/07 08:17:16;;;;;;;14.63;8.05;;;;;;;;;;716251;194;920759;-60
2024/01/07 08:19:42;;;;;;;11.67;9.10;;;;;;;;;;722765;195;633532;-66
2024/01/07 08:22:09;;;;;;;14.37;8.97;;;;;;;;;;717926;192;680414;-67
2024/01/07 08:24:33;;;;;;;12.30;8.60;;;;;;;;;;715302;194;630979;-60
2024/01/07 08:26:59;;;;;;;15.30;9.40;;;;;;;;;;724201;194;622516;-66
2024/01/07 08:29:26;;;;;;;13.82;5.87;;;;;;;;;;722026;194;627381;-59
2024/01/07 08:31:51;;;;;;;12.50;7.97;;;;;;;;;;720744;194;634057;-60
2024/01/07 08:34:17;;;;;;;18.02;10.70;;;;;;;;;;720280;194;918916;-67
2024/01/07 08:36:43;;;;;;;30.50;16.30;;;;;;;;;;715285;194;913098;-68
2024/01/07 08:39:09;;;;;;;31.37;17.53;;;;;;;;;;713673;194;918485;-67
2024/01/07 08:41:35;;;;;;;10.15;5.70;;;;;;;;;;716720;194;917569;-60
2024/01/07 08:44:00;;;;;;;16.77;11.77;;;;;;;;;;718635;194;891220;-66
2024/01/07 08:46:26;;;;;;;15.50;9.00;;;;;;;;;;715361;194;936271;-65
2024/01/07 08:48:53;;;;;;;24.42;16.80;;;;;;;;;;717577;194;814692;-60
2024/01/07 08:51:18;;;;;;;17.27;12.80;;;;;;;;;;721128;194;919927;-60
2024/01/07 08:53:44;;;;;;;12.80;8.57;;;;;;;;;;714764;194;920481;-60
2024/01/07 08:56:10;;;;;;;10.50;8.30;;;;;;;;;;712940;194;919259;-67
2024/01/07 08:58:37;;;;;;;14.17;8.20;;;;;;;;;;717404;194;920368;-60
2024/01/07 09:01:02;;;;;;;15.13;6.80;;;;;;;;;;716959;194;920500;-66
2024/01/07 09:03:28;;;;;;;12.97;8.07;;;;;;;;;;713052;194;920479;-59
2024/01/07 09:05:54;;;;;;;12.40;6.35;;;;;;;;;;713902;194;919718;-60
2024/01/07 09:08:19;;;;;;;13.53;9.33;;;;;;;;;;720386;194;918950;-67
2024/01/07 09:10:45;;;;;;;13.23;7.72;;;;;;;;;;716441;194;880307;-68
2024/01/07 09:13:11;;;;;;;15.53;8.23;;;;;;;;;;716141;194;919415;-67
2024/01/07 09:15:37;;;;;;;10.27;6.80;;;;;;;;;;717740;194;816677;-67
2024/01/07 09:18:04;;;;;;;7.13;6.20;;;;;;;;;;713397;195;844056;-60
2024/01/07 09:20:30;;;;;;;14.82;9.27;;;;;;;;;;714652;194;919387;-67
2024/01/07 09:22:57;;;;;;;17.50;9.27;;;;;;;;;;716488;194;918492;-67
2024/01/07 09:25:22;;;;;;;17.90;11.33;;;;;;;;;;716787;194;935076;-59
2024/01/07 09:27:48;;;;;;;13.30;8.07;;;;;;;;;;714566;194;914433;-67
2024/01/07 09:30:15;;;;;;;11.90;7.83;;;;;;;;;;716518;194;919640;-67
2024/01/07 09:32:41;;;;;;;23.45;13.07;;;;;;;;;;716525;194;921910;-68
2024/01/07 09:35:06;;;;;;;10.83;7.40;;;;;;;;;;716185;194;920046;-62
2024/01/07 09:37:32;;;;;;;21.27;11.97;;;;;;;;;;719129;194;813083;-68
2024/01/07 09:39:58;;;;;;;18.20;11.80;;;;;;;;;;724114;194;906622;-59
2024/01/07 09:42:24;;;;;;;22.47;9.30;;;;;;;;;;714529;194;823475;-67
2024/01/07 09:44:50;;;;;;;42.00;14.70;;;;;;;;;;716925;194;916461;-60
2024/01/07 09:47:16;;;;;;;31.70;15.97;;;;;;;;;;718086;194;915241;-68
2024/01/07 09:49:42;;;;;;;13.40;10.23;;;;;;;;;;713552;194;916999;-66
2024/01/07 09:52:08;;;;;;;17.33;8.90;;;;;;;;;;714814;194;913717;-60
2024/01/07 09:54:33;;;;;;;15.80;10.73;;;;;;;;;;712559;194;919237;-60
2024/01/07 09:57:00;;;;;;;18.63;12.87;;;;;;;;;;716147;194;816249;-60
2024/01/07 09:59:26;;;;;;;14.03;8.40;;;;;;;;;;715089;194;918531;-59
2024/01/07 10:01:52;;;;;;;9.17;7.07;;;;;;;;;;714307;194;913239;-67
2024/01/07 10:04:18;;;;;;;13.80;10.43;;;;;;;;;;716504;194;908567;-67
2024/01/07 10:06:43;;;;;;;11.07;8.23;;;;;;;;;;711701;194;1018943;-59
2024/01/07 10:09:09;;;;;;;8.20;6.47;;;;;;;;;;719032;194;920133;-61
2024/01/07 10:11:35;;;;;;;17.13;8.00;;;;;;;;;;715784;194;918255;-59
2024/01/07 10:14:01;;;;;;;14.63;10.50;;;;;;;;;;714350;194;921340;-60
2024/01/07 10:16:27;;;;;;;16.93;10.03;;;;;;;;;;717545;192;922852;-67
2024/01/07 10:18:53;;;;;;;12.97;10.00;;;;;;;;;;715921;194;918267;-66
2024/01/07 10:21:18;;;;;;;11.90;8.57;;;;;;;;;;716231;194;810597;-60
2024/01/07 10:23:44;;;;;;;14.70;8.50;;;;;;;;;;713514;194;918541;-61
2024/01/07 10:26:10;;;;;;;7.83;5.03;;;;;;;;;;713915;194;922097;-61
2024/01/07 10:28:37;;;;;;;14.70;8.57;;;;;;;;;;719565;194;933708;-67
2024/01/07 10:31:02;;;;;;;13.53;6.37;;;;;;;;;;716761;194;1016442;-68
2024/01/07 10:33:28;;;;;;;18.33;10.40;;;;;;;;;;713131;194;916966;-67
2024/01/07 10:35:54;;;;;;;19.17;10.60;;;;;;;;;;716120;194;867591;-67
2024/01/07 10:38:21;;;;;;;14.73;8.67;;;;;;;;;;714139;194;1197435;-68
2024/01/07 10:40:47;;;;;;;14.30;8.40;;;;;;;;;;716342;194;822950;-59
2024/01/07 10:43:12;;;;;;;13.20;7.77;;;;;;;;;;716259;194;821013;-59
2024/01/07 10:45:38;;;;;;;15.10;10.27;;;;;;;;;;717398;193;919224;-67
2024/01/07 10:48:06;;;;;;;21.23;11.53;;;;;;;;;;713358;194;918991;-59
2024/01/07 10:50:30;;;;;;;18.50;13.07;;;;;;;;;;717167;194;918821;-68
2024/01/07 10:52:58;;;;;;;17.23;10.90;;;;;;;;;;727387;192;863056;-69
2024/01/07 10:55:23;;;;;;;21.90;12.50;;;;;;;;;;716935;194;920959;-67
2024/01/07 10:57:49;;;;;;;16.80;9.40;;;;;;;;;;715560;194;915989;-60
2024/01/07 11:00:18;;;;;;;18.73;8.83;;;;;;;;;;719391;194;824107;-68
2024/01/07 11:02:45;;;;;;;33.00;18.53;;;;;;;;;;716650;194;914053;-68
2024/01/07 11:05:12;;;;;;;25.27;14.03;;;;;;;;;;714376;194;906515;-60
2024/01/07 11:07:38;;;;;;;15.68;7.78;;;;;;;;;;715868;193;913081;-61
2024/01/07 11:10:04;;;;;;;11.63;7.93;;;;;;;;;;715182;194;922969;-61
2024/01/07 11:12:30;;;;;;;28.87;10.90;;;;;;;;;;715232;194;656103;-69
2024/01/07 11:14:57;;;;;;;14.60;8.30;;;;;;;;;;717594;194;917898;-61
2024/01/07 11:17:28;;;;;;;20.77;11.70;;;;;;;;;;720502;194;925302;-61
2024/01/07 11:19:56;;;;;;;12.77;8.00;;;;;;;;;;717506;194;918962;-67
2024/01/07 11:22:22;;;;;;;19.80;12.40;;;;;;;;;;713902;193;931938;-61
2024/01/07 11:24:47;;;;;;;16.90;12.00;;;;;;;;;;714585;194;918722;-61
2024/01/07 11:27:13;;;;;;;34.47;18.53;;;;;;;;;;721954;190;849899;-62
2024/01/07 11:29:39;;;;;;;18.07;13.17;;;;;;;;;;715860;194;841584;-69
2024/01/07 11:32:05;;;;;;;24.40;12.23;;;;;;;;;;713630;194;820814;-60
2024/01/07 11:34:37;;;;;;;17.97;9.70;;;;;;;;;;716145;194;914326;-67
2024/01/07 11:37:03;;;;;;;18.02;9.13;;;;;;;;;;712967;194;918800;-68
2024/01/07 11:39:29;;;;;;;16.10;9.23;;;;;;;;;;709366;192;917679;-60
2024/01/07 11:41:54;;;;;;;18.03;11.60;;;;;;;;;;713257;194;915589;-61
2024/01/07 11:44:20;;;;;;;17.60;8.40;;;;;;;;;;719758;194;817632;-61
2024/01/07 11:46:46;;;;;;;11.03;7.03;;;;;;;;;;714399;194;919356;-68
2024/01/07 11:49:15;;;;;;;17.25;10.93;;;;;;;;;;715147;194;916117;-69
2024/01/07 11:51:40;;;;;;;15.67;10.97;;;;;;;;;;717208;194;920735;-69
2024/01/07 11:54:06;;;;;;;13.50;9.90;;;;;;;;;;715708;194;815786;-60
2024/01/07 11:56:33;;;;;;;16.67;10.30;;;;;;;;;;711758;192;921187;-67
2024/01/07 11:58:59;;;;;;;19.13;9.90;;;;;;;;;;716456;194;921841;-60
2024/01/07 12:01:26;;;;;;;22.53;12.67;;;;;;;;;;712673;194;916843;-60
2024/01/07 12:03:50;;;;;;;14.53;8.10;;;;;;;;;;715653;194;814962;-68
2024/01/07 12:06:16;;;;;;;23.55;13.05;;;;;;;;;;719596;194;816332;-67
2024/01/07 12:08:43;;;;;;;32.43;17.47;;;;;;;;;;727869;190;826888;-60
2024/01/07 12:11:10;;;;;;;26.17;14.90;;;;;;;;;;713663;194;918060;-68
2024/01/07 12:13:35;;;;;;;33.70;17.20;;;;;;;;;;713222;194;898882;-71
2024/01/07 12:16:01;;;;;;;41.10;14.43;;;;;;;;;;718102;194;921698;-66
2024/01/07 12:18:27;;;;;;;32.57;15.53;;;;;;;;;;716122;194;854629;-61
2024/01/07 12:20:54;;;;;;;37.95;22.02;;;;;;;;;;712326;194;921707;-60
2024/01/07 12:23:20;;;;;;;59.27;33.10;;;;;;;;;;722014;194;730727;-60
2024/01/07 12:25:46;;;;;;;54.10;17.33;;;;;;;;;;714304;194;919425;-59
2024/01/07 12:28:12;;;;;;;90.70;35.20;;;;;;;;;;714934;194;919064;-67
2024/01/07 12:30:39;;;;;;;54.03;24.43;;;;;;;;;;715586;194;804607;-67
2024/01/07 12:33:06;;;;;;;29.80;20.00;;;;;;;;;;718629;194;866110;-60
2024/01/07 12:35:32;;;;;;;25.63;17.57;;;;;;;;;;714319;194;918028;-68
2024/01/07 12:37:57;;;;;;;50.50;28.77;;;;;;;;;;712846;194;920731;-61
2024/01/07 12:40:24;;;;;;;43.90;26.50;;;;;;;;;;716256;194;883834;-67
2024/01/07 12:42:49;;;;;;;47.90;26.77;;;;;;;;;;714232;194;921389;-60
2024/01/07 12:45:15;;;;;;;23.98;13.40;;;;;;;;;;711903;194;819408;-67
2024/01/07 12:47:41;;;;;;;42.57;29.50;;;;;;;;;;719070;194;917986;-68
2024/01/07 12:50:08;;;;;;;27.73;14.23;;;;;;;;;;714282;194;897872;-60
2024/01/07 12:52:33;;;;;;;20.87;13.67;;;;;;;;;;711134;194;915769;-67
2024/01/07 12:54:59;;;;;;;19.93;12.77;;;;;;;;;;712225;194;911838;-68
2024/01/07 12:57:24;;;;;;;18.87;11.52;;;;;;;;;;724447;191;903183;-68
2024/01/07 12:59:50;;;;;;;21.97;15.90;;;;;;;;;;715179;194;949957;-67
2024/01/07 13:02:16;;;;;;;19.17;12.97;;;;;;;;;;713337;194;912242;-67
2024/01/07 13:04:42;;;;;;;26.30;14.82;;;;;;;;;;717612;194;816536;-60
2024/01/07 13:07:08;;;;;;;30.37;19.97;;;;;;;;;;715433;194;915426;-69
2024/01/07 13:09:34;;;;;;;33.33;21.37;;;;;;;;;;716257;192;924341;-69
2024/01/07 13:12:00;;;;;;;25.83;14.60;;;;;;;;;;721181;194;813220;-60
2024/01/07 13:14:25;;;;;;;17.13;13.00;;;;;;;;;;712987;194;916358;-60
2024/01/07 13:16:51;;;;;;;22.20;15.07;;;;;;;;;;713956;194;922092;-60
2024/01/07 13:19:17;;;;;;;31.70;18.60;;;;;;;;;;718452;194;810710;-67
2024/01/07 13:21:43;;;;;;;15.00;10.47;;;;;;;;;;713185;194;877426;-62
2024/01/07 13:24:09;;;;;;;24.50;16.80;;;;;;;;;;714169;194;918752;-60
2024/01/07 13:26:35;;;;;;;15.03;9.70;;;;;;;;;;713821;194;924895;-60
2024/01/07 13:29:00;;;;;;;23.97;16.37;;;;;;;;;;716777;194;715040;-60
2024/01/07 13:31:26;;;;;;;22.00;14.00;;;;;;;;;;717176;194;800022;-69
2024/01/07 13:33:52;;;;;;;23.08;15.00;;;;;;;;;;712124;194;922098;-69
2024/01/07 13:36:18;;;;;;;15.20;10.53;;;;;;;;;;718221;194;924520;-61
2024/01/07 13:38:44;;;;;;;25.70;14.33;;;;;;;;;;712551;194;1635825;-60
2024/01/07 13:41:10;;;;;;;25.58;16.67;;;;;;;;;;717231;194;802518;-63
2024/01/07 13:43:37;;;;;;;29.37;20.73;;;;;;;;;;717673;194;919170;-61
2024/01/07 13:46:02;;;;;;;21.80;14.45;;;;;;;;;;712614;194;918560;-61
2024/01/07 13:48:27;;;;;;;22.05;12.70;;;;;;;;;;713483;194;918391;-60
2024/01/07 13:50:54;;;;;;;20.67;11.60;;;;;;;;;;715222;194;917166;-68
2024/01/07 13:53:19;;;;;;;31.70;17.07;;;;;;;;;;720850;195;633066;-68
2024/01/07 13:55:46;;;;;;;25.33;15.00;;;;;;;;;;714846;194;619804;-60
2024/01/07 13:58:11;;;;;;;28.00;18.93;;;;;;;;;;718015;194;649640;-61
2024/01/07 14:00:36;;;;;;;23.30;13.73;;;;;;;;;;721099;194;613662;-60
2024/01/07 14:03:02;;;;;;;28.67;24.02;;;;;;;;;;717045;194;642068;-68
2024/01/07 14:05:28;;;;;;;26.67;12.33;;;;;;;;;;718410;194;636175;-60